KFAM/FAM METAR and TAF weather

Enter ICAO airport designator
Station Type Date Time Source
KFAM METAR 2022/06/26 07:56 UTC NOAA

KFAM 260756Z AUTO 26004KT 10SM CLR 28/22 A3000 RMK AO2 SLP158 T02780217


Station Type Date Time Source
KFAM Decoded METAR 2022/06/26 07:56 UTC NOAA

Farmington Airport, MO, United States (KFAM) 37-46N 090-26W
Jun 26, 2022 - 03:56 AM EDT / 2022.06.26 0756 UTC
Wind: from the W (260 degrees) at 5 MPH (4 KT):0
Visibility: 10 mile(s):0
Sky conditions: clear
Temperature: 82.0 F (27.8 C)
Dew Point: 71.1 F (21.7 C)
Relative Humidity: 69%
Pressure (altimeter): 30 in. Hg (1015 hPa)
ob: KFAM 260756Z AUTO 26004KT 10SM CLR 28/22 A3000 RMK AO2 SLP158 T02780217
cycle: 8

Station Type Date Time Source
KFAM TAF UTC NOAA

Error!

Example: see airport list